sensor_id;sensor_type;location;lat;lon;timestamp;temperature;humidity
6536;DHT22;34330;52.08032700;5.40923460;2023-10-09T00:00:09;18.40;93.30
6536;DHT22;34330;52.08032700;5.40923460;2023-10-09T00:03:06;18.40;93.40
6536;DHT22;34330;52.08032700;5.40923460;2023-10-09T00:05:34;18.50;93.30
6536;DHT22;34330;52.08032700;5.40923460;2023-10-09T00:08:13;18.50;93.30
6536;DHT22;34330;52.08032700;5.40923460;2023-10-09T00:10:46;18.50;93.30
6536;DHT22;34330;52.08032700;5.40923460;2023-10-09T00:13:19;18.40;93.30
6536;DHT22;34330;52.08032700;5.40923460;2023-10-09T00:15:55;18.50;93.20
6536;DHT22;34330;52.08032700;5.40923460;2023-10-09T00:18:27;18.50;93.30
6536;DHT22;34330;52.08032700;5.40923460;2023-10-09T00:21:01;18.50;93.20
6536;DHT22;34330;52.08032700;5.40923460;2023-10-09T00:23:39;18.50;93.20
6536;DHT22;34330;52.08032700;5.40923460;2023-10-09T00:26:08;18.50;93.20
6536;DHT22;34330;52.08032700;5.40923460;2023-10-09T00:28:38;18.50;93.20
6536;DHT22;34330;52.08032700;5.40923460;2023-10-09T00:31:12;18.40;93.10
6536;DHT22;34330;52.08032700;5.40923460;2023-10-09T00:33:43;18.50;93.20
6536;DHT22;34330;52.08032700;5.40923460;2023-10-09T00:36:11;18.50;93.10
6536;DHT22;34330;52.08032700;5.40923460;2023-10-09T00:38:45;18.50;93.40
6536;DHT22;34330;52.08032700;5.40923460;2023-10-09T00:41:18;18.50;93.00
6536;DHT22;34330;52.08032700;5.40923460;2023-10-09T00:43:52;18.50;93.00
6536;DHT22;34330;52.08032700;5.40923460;2023-10-09T00:46:21;18.50;93.00
6536;DHT22;34330;52.08032700;5.40923460;2023-10-09T00:48:54;18.50;93.00
6536;DHT22;34330;52.08032700;5.40923460;2023-10-09T00:51:24;18.50;93.00
6536;DHT22;34330;52.08032700;5.40923460;2023-10-09T00:53:56;18.50;93.00
6536;DHT22;34330;52.08032700;5.40923460;2023-10-09T00:56:26;18.50;93.10
6536;DHT22;34330;52.08032700;5.40923460;2023-10-09T00:59:07;18.50;93.10
6536;DHT22;34330;52.08032700;5.40923460;2023-10-09T01:01:42;18.60;93.10
6536;DHT22;34330;52.08032700;5.40923460;2023-10-09T01:04:23;18.50;93.10
6536;DHT22;34330;52.08032700;5.40923460;2023-10-09T01:06:53;18.50;93.00
6536;DHT22;34330;52.08032700;5.40923460;2023-10-09T01:09:34;18.50;93.00
6536;DHT22;34330;52.08032700;5.40923460;2023-10-09T01:12:05;18.50;93.00
6536;DHT22;34330;52.08032700;5.40923460;2023-10-09T01:14:33;18.50;92.90
6536;DHT22;34330;52.08032700;5.40923460;2023-10-09T01:17:09;18.50;92.90
6536;DHT22;34330;52.08032700;5.40923460;2023-10-09T01:19:38;18.50;92.90
6536;DHT22;34330;52.08032700;5.40923460;2023-10-09T01:22:06;18.50;93.00
6536;DHT22;34330;52.08032700;5.40923460;2023-10-09T01:24:42;18.50;93.30
6536;DHT22;34330;52.08032700;5.40923460;2023-10-09T01:27:11;18.50;92.90
6536;DHT22;34330;52.08032700;5.40923460;2023-10-09T01:29:43;18.60;93.10
6536;DHT22;34330;52.08032700;5.40923460;2023-10-09T01:32:13;18.50;93.10
6536;DHT22;34330;52.08032700;5.40923460;2023-10-09T01:34:46;18.50;93.10
6536;DHT22;34330;52.08032700;5.40923460;2023-10-09T01:37:18;18.60;93.10
6536;DHT22;34330;52.08032700;5.40923460;2023-10-09T01:39:52;18.50;93.10
6536;DHT22;34330;52.08032700;5.40923460;2023-10-09T01:42:21;18.50;93.20
6536;DHT22;34330;52.08032700;5.40923460;2023-10-09T01:45:00;18.50;93.20
6536;DHT22;34330;52.08032700;5.40923460;2023-10-09T01:47:37;18.40;93.40
6536;DHT22;34330;52.08032700;5.40923460;2023-10-09T01:50:08;18.50;93.60
6536;DHT22;34330;52.08032700;5.40923460;2023-10-09T01:52:38;18.50;93.60
6536;DHT22;34330;52.08032700;5.40923460;2023-10-09T01:55:08;18.60;93.50
6536;DHT22;34330;52.08032700;5.40923460;2023-10-09T01:57:40;18.60;93.40
6536;DHT22;34330;52.08032700;5.40923460;2023-10-09T02:00:12;18.60;93.30
6536;DHT22;34330;52.08032700;5.40923460;2023-10-09T02:02:51;18.60;93.30
6536;DHT22;34330;52.08032700;5.40923460;2023-10-09T02:05:19;18.70;93.30
6536;DHT22;34330;52.08032700;5.40923460;2023-10-09T02:07:52;18.60;93.30
6536;DHT22;34330;52.08032700;5.40923460;2023-10-09T02:10:22;18.90;93.40
6536;DHT22;34330;52.08032700;5.40923460;2023-10-09T02:13:00;18.60;93.30
6536;DHT22;34330;52.08032700;5.40923460;2023-10-09T02:15:35;18.60;93.30
6536;DHT22;34330;52.08032700;5.40923460;2023-10-09T02:18:14;18.70;93.30
6536;DHT22;34330;52.08032700;5.40923460;2023-10-09T02:20:47;18.70;93.30
6536;DHT22;34330;52.08032700;5.40923460;2023-10-09T02:23:23;18.70;93.30
6536;DHT22;34330;52.08032700;5.40923460;2023-10-09T02:26:07;18.70;93.30
6536;DHT22;34330;52.08032700;5.40923460;2023-10-09T02:28:36;19.60;93.60
6536;DHT22;34330;52.08032700;5.40923460;2023-10-09T02:31:10;18.70;93.30
6536;DHT22;34330;52.08032700;5.40923460;2023-10-09T02:33:38;18.60;93.40
6536;DHT22;34330;52.08032700;5.40923460;2023-10-09T02:36:07;18.60;93.30
6536;DHT22;34330;52.08032700;5.40923460;2023-10-09T02:38:35;20.10;93.90
6536;DHT22;34330;52.08032700;5.40923460;2023-10-09T02:41:08;18.60;93.30
6536;DHT22;34330;52.08032700;5.40923460;2023-10-09T02:43:47;18.60;93.40
6536;DHT22;34330;52.08032700;5.40923460;2023-10-09T02:46:18;18.70;93.40
6536;DHT22;34330;52.08032700;5.40923460;2023-10-09T02:48:48;18.70;93.40
6536;DHT22;34330;52.08032700;5.40923460;2023-10-09T02:51:18;18.70;93.50
6536;DHT22;34330;52.08032700;5.40923460;2023-10-09T02:54:02;18.70;93.50
6536;DHT22;34330;52.08032700;5.40923460;2023-10-09T02:56:46;18.70;93.50
6536;DHT22;34330;52.08032700;5.40923460;2023-10-09T02:59:24;18.70;93.50
6536;DHT22;34330;52.08032700;5.40923460;2023-10-09T03:01:52;19.00;93.60
6536;DHT22;34330;52.08032700;5.40923460;2023-10-09T03:04:20;18.70;93.50
6536;DHT22;34330;52.08032700;5.40923460;2023-10-09T03:06:51;18.70;93.50
6536;DHT22;34330;52.08032700;5.40923460;2023-10-09T03:09:25;18.70;93.50
6536;DHT22;34330;52.08032700;5.40923460;2023-10-09T03:12:01;18.70;93.60
6536;DHT22;34330;52.08032700;5.40923460;2023-10-09T03:14:31;18.80;93.70
6536;DHT22;34330;52.08032700;5.40923460;2023-10-09T03:17:02;18.80;93.70
6536;DHT22;34330;52.08032700;5.40923460;2023-10-09T03:19:32;18.90;93.80
6536;DHT22;34330;52.08032700;5.40923460;2023-10-09T03:22:05;18.80;93.80
6536;DHT22;34330;52.08032700;5.40923460;2023-10-09T03:24:36;18.80;93.80
6536;DHT22;34330;52.08032700;5.40923460;2023-10-09T03:27:05;18.80;93.80
6536;DHT22;34330;52.08032700;5.40923460;2023-10-09T03:29:34;18.80;93.90
6536;DHT22;34330;52.08032700;5.40923460;2023-10-09T03:32:02;18.80;93.80
6536;DHT22;34330;52.08032700;5.40923460;2023-10-09T03:34:30;18.80;93.90
6536;DHT22;34330;52.08032700;5.40923460;2023-10-09T03:36:58;18.80;93.90
6536;DHT22;34330;52.08032700;5.40923460;2023-10-09T03:39:39;18.80;93.90
6536;DHT22;34330;52.08032700;5.40923460;2023-10-09T03:42:09;18.90;93.90
6536;DHT22;34330;52.08032700;5.40923460;2023-10-09T03:44:46;18.90;94.00
6536;DHT22;34330;52.08032700;5.40923460;2023-10-09T03:47:21;18.90;94.00
6536;DHT22;34330;52.08032700;5.40923460;2023-10-09T03:49:51;18.90;94.00
6536;DHT22;34330;52.08032700;5.40923460;2023-10-09T03:52:21;18.90;94.10
6536;DHT22;34330;52.08032700;5.40923460;2023-10-09T03:54:53;19.00;94.10
6536;DHT22;34330;52.08032700;5.40923460;2023-10-09T03:57:23;19.10;94.10
6536;DHT22;34330;52.08032700;5.40923460;2023-10-09T03:59:51;19.00;94.20
6536;DHT22;34330;52.08032700;5.40923460;2023-10-09T04:02:20;19.10;94.20
6536;DHT22;34330;52.08032700;5.40923460;2023-10-09T04:04:49;19.00;94.10
6536;DHT22;34330;52.08032700;5.40923460;2023-10-09T04:07:18;19.00;94.20
6536;DHT22;34330;52.08032700;5.40923460;2023-10-09T04:09:48;19.20;94.20
6536;DHT22;34330;52.08032700;5.40923460;2023-10-09T04:12:22;19.00;94.20
6536;DHT22;34330;52.08032700;5.40923460;2023-10-09T04:14:53;19.00;94.20
6536;DHT22;34330;52.08032700;5.40923460;2023-10-09T04:17:25;19.00;94.20
6536;DHT22;34330;52.08032700;5.40923460;2023-10-09T04:20:01;19.10;94.30
6536;DHT22;34330;52.08032700;5.40923460;2023-10-09T04:22:47;19.10;94.30
6536;DHT22;34330;52.08032700;5.40923460;2023-10-09T04:25:18;19.10;94.20
6536;DHT22;34330;52.08032700;5.40923460;2023-10-09T04:27:54;19.10;94.20
6536;DHT22;34330;52.08032700;5.40923460;2023-10-09T04:30:35;19.10;94.30
6536;DHT22;34330;52.08032700;5.40923460;2023-10-09T04:33:08;19.10;94.20
6536;DHT22;34330;52.08032700;5.40923460;2023-10-09T04:35:55;19.10;94.10
6536;DHT22;34330;52.08032700;5.40923460;2023-10-09T04:38:37;19.10;94.20
6536;DHT22;34330;52.08032700;5.40923460;2023-10-09T04:41:06;19.10;94.30
6536;DHT22;34330;52.08032700;5.40923460;2023-10-09T04:43:35;19.10;94.30
6536;DHT22;34330;52.08032700;5.40923460;2023-10-09T04:46:10;19.10;94.40
6536;DHT22;34330;52.08032700;5.40923460;2023-10-09T04:48:39;19.10;94.40
6536;DHT22;34330;52.08032700;5.40923460;2023-10-09T04:51:14;19.40;94.60
6536;DHT22;34330;52.08032700;5.40923460;2023-10-09T04:53:48;19.20;94.70
6536;DHT22;34330;52.08032700;5.40923460;2023-10-09T04:56:27;19.20;94.60
6536;DHT22;34330;52.08032700;5.40923460;2023-10-09T04:59:00;19.20;94.60
6536;DHT22;34330;52.08032700;5.40923460;2023-10-09T05:01:32;19.20;94.70
6536;DHT22;34330;52.08032700;5.40923460;2023-10-09T05:04:10;19.40;94.80
6536;DHT22;34330;52.08032700;5.40923460;2023-10-09T05:06:56;19.40;94.80
6536;DHT22;34330;52.08032700;5.40923460;2023-10-09T05:09:24;19.30;94.80
6536;DHT22;34330;52.08032700;5.40923460;2023-10-09T05:11:53;19.30;94.80
6536;DHT22;34330;52.08032700;5.40923460;2023-10-09T05:14:22;19.30;94.80
6536;DHT22;34330;52.08032700;5.40923460;2023-10-09T05:17:06;19.30;94.80
6536;DHT22;34330;52.08032700;5.40923460;2023-10-09T05:19:43;19.30;94.80
6536;DHT22;34330;52.08032700;5.40923460;2023-10-09T05:22:21;19.30;94.80
6536;DHT22;34330;52.08032700;5.40923460;2023-10-09T05:25:03;19.30;94.80
6536;DHT22;34330;52.08032700;5.40923460;2023-10-09T05:27:42;19.30;95.10
6536;DHT22;34330;52.08032700;5.40923460;2023-10-09T05:30:18;19.40;94.90
6536;DHT22;34330;52.08032700;5.40923460;2023-10-09T05:32:53;19.30;94.80
6536;DHT22;34330;52.08032700;5.40923460;2023-10-09T05:35:25;19.40;94.90
6536;DHT22;34330;52.08032700;5.40923460;2023-10-09T05:38:08;19.40;95.00
6536;DHT22;34330;52.08032700;5.40923460;2023-10-09T05:40:42;19.40;95.00
6536;DHT22;34330;52.08032700;5.40923460;2023-10-09T05:43:20;19.40;94.90
6536;DHT22;34330;52.08032700;5.40923460;2023-10-09T05:46:07;19.40;95.10
6536;DHT22;34330;52.08032700;5.40923460;2023-10-09T05:48:36;19.40;95.00
6536;DHT22;34330;52.08032700;5.40923460;2023-10-09T05:51:21;19.40;95.00
6536;DHT22;34330;52.08032700;5.40923460;2023-10-09T05:54:08;19.50;95.10
6536;DHT22;34330;52.08032700;5.40923460;2023-10-09T05:57:11;19.50;95.00
6536;DHT22;34330;52.08032700;5.40923460;2023-10-09T06:00:09;19.50;95.00
6536;DHT22;34330;52.08032700;5.40923460;2023-10-09T06:03:02;19.50;95.10
6536;DHT22;34330;52.08032700;5.40923460;2023-10-09T06:05:52;19.50;95.00
6536;DHT22;34330;52.08032700;5.40923460;2023-10-09T06:08:31;19.50;95.00
6536;DHT22;34330;52.08032700;5.40923460;2023-10-09T06:11:31;19.50;95.10
6536;DHT22;34330;52.08032700;5.40923460;2023-10-09T06:14:13;19.70;95.20
6536;DHT22;34330;52.08032700;5.40923460;2023-10-09T06:16:42;19.50;95.10
6536;DHT22;34330;52.08032700;5.40923460;2023-10-09T06:19:14;19.60;95.20
6536;DHT22;34330;52.08032700;5.40923460;2023-10-09T06:21:54;19.60;95.50
6536;DHT22;34330;52.08032700;5.40923460;2023-10-09T06:24:46;19.60;95.20
6536;DHT22;34330;52.08032700;5.40923460;2023-10-09T06:27:22;19.60;95.20
6536;DHT22;34330;52.08032700;5.40923460;2023-10-09T06:30:12;19.60;95.10
6536;DHT22;34330;52.08032700;5.40923460;2023-10-09T06:32:51;19.70;95.20
6536;DHT22;34330;52.08032700;5.40923460;2023-10-09T06:35:26;19.80;95.20
6536;DHT22;34330;52.08032700;5.40923460;2023-10-09T06:38:02;19.70;95.00
6536;DHT22;34330;52.08032700;5.40923460;2023-10-09T06:40:50;19.70;95.10
6536;DHT22;34330;52.08032700;5.40923460;2023-10-09T06:43:35;19.70;95.10
6536;DHT22;34330;52.08032700;5.40923460;2023-10-09T06:46:17;19.70;95.10
6536;DHT22;34330;52.08032700;5.40923460;2023-10-09T06:49:02;19.80;95.20
6536;DHT22;34330;52.08032700;5.40923460;2023-10-09T06:51:57;19.80;95.20
6536;DHT22;34330;52.08032700;5.40923460;2023-10-09T06:54:41;20.80;95.60
6536;DHT22;34330;52.08032700;5.40923460;2023-10-09T06:57:17;19.80;95.20
6536;DHT22;34330;52.08032700;5.40923460;2023-10-09T07:00:08;19.80;95.20
6536;DHT22;34330;52.08032700;5.40923460;2023-10-09T07:03:07;19.80;95.10
6536;DHT22;34330;52.08032700;5.40923460;2023-10-09T07:05:39;19.90;95.10
6536;DHT22;34330;52.08032700;5.40923460;2023-10-09T07:08:29;19.90;95.20
6536;DHT22;34330;52.08032700;5.40923460;2023-10-09T07:11:03;19.90;95.30
6536;DHT22;34330;52.08032700;5.40923460;2023-10-09T07:13:45;19.90;95.20
6536;DHT22;34330;52.08032700;5.40923460;2023-10-09T07:16:22;19.90;95.20
6536;DHT22;34330;52.08032700;5.40923460;2023-10-09T07:18:56;19.90;95.30
6536;DHT22;34330;52.08032700;5.40923460;2023-10-09T07:21:36;20.00;95.30
6536;DHT22;34330;52.08032700;5.40923460;2023-10-09T07:24:07;20.00;95.30
6536;DHT22;34330;52.08032700;5.40923460;2023-10-09T07:26:44;20.00;95.20
6536;DHT22;34330;52.08032700;5.40923460;2023-10-09T07:29:20;20.00;95.20
6536;DHT22;34330;52.08032700;5.40923460;2023-10-09T07:31:51;20.00;95.20
6536;DHT22;34330;52.08032700;5.40923460;2023-10-09T07:34:30;20.00;95.30
6536;DHT22;34330;52.08032700;5.40923460;2023-10-09T07:37:20;20.10;95.30
6536;DHT22;34330;52.08032700;5.40923460;2023-10-09T07:39:51;20.10;95.60
6536;DHT22;34330;52.08032700;5.40923460;2023-10-09T07:42:25;20.10;95.40
6536;DHT22;34330;52.08032700;5.40923460;2023-10-09T07:45:11;20.20;95.50
6536;DHT22;34330;52.08032700;5.40923460;2023-10-09T07:48:00;20.20;95.50
6536;DHT22;34330;52.08032700;5.40923460;2023-10-09T07:50:34;20.20;95.50
6536;DHT22;34330;52.08032700;5.40923460;2023-10-09T07:53:08;20.30;95.60
6536;DHT22;34330;52.08032700;5.40923460;2023-10-09T07:55:54;20.30;95.50
6536;DHT22;34330;52.08032700;5.40923460;2023-10-09T07:58:25;20.30;95.60
6536;DHT22;34330;52.08032700;5.40923460;2023-10-09T08:00:53;20.40;95.60
6536;DHT22;34330;52.08032700;5.40923460;2023-10-09T08:03:35;20.40;95.60
6536;DHT22;34330;52.08032700;5.40923460;2023-10-09T08:06:03;20.50;95.50
6536;DHT22;34330;52.08032700;5.40923460;2023-10-09T08:08:56;20.50;95.40
6536;DHT22;34330;52.08032700;5.40923460;2023-10-09T08:11:56;20.60;95.50
6536;DHT22;34330;52.08032700;5.40923460;2023-10-09T08:15:06;20.60;95.50
6536;DHT22;34330;52.08032700;5.40923460;2023-10-09T08:17:50;20.60;95.50
6536;DHT22;34330;52.08032700;5.40923460;2023-10-09T08:20:21;21.50;95.80
6536;DHT22;34330;52.08032700;5.40923460;2023-10-09T08:22:52;20.70;95.40
6536;DHT22;34330;52.08032700;5.40923460;2023-10-09T08:25:23;20.70;95.60
6536;DHT22;34330;52.08032700;5.40923460;2023-10-09T08:27:58;20.80;95.40
6536;DHT22;34330;52.08032700;5.40923460;2023-10-09T08:30:26;20.80;95.40
6536;DHT22;34330;52.08032700;5.40923460;2023-10-09T08:33:08;20.80;95.40
6536;DHT22;34330;52.08032700;5.40923460;2023-10-09T08:35:54;22.40;96.30
6536;DHT22;34330;52.08032700;5.40923460;2023-10-09T08:38:28;20.90;95.30
6536;DHT22;34330;52.08032700;5.40923460;2023-10-09T08:41:07;20.90;95.30
6536;DHT22;34330;52.08032700;5.40923460;2023-10-09T08:43:51;20.90;95.30
6536;DHT22;34330;52.08032700;5.40923460;2023-10-09T08:46:21;21.00;95.40
6536;DHT22;34330;52.08032700;5.40923460;2023-10-09T08:48:50;21.10;95.40
6536;DHT22;34330;52.08032700;5.40923460;2023-10-09T08:51:18;21.00;95.20
6536;DHT22;34330;52.08032700;5.40923460;2023-10-09T08:53:47;21.10;95.40
6536;DHT22;34330;52.08032700;5.40923460;2023-10-09T08:56:17;21.10;95.30
6536;DHT22;34330;52.08032700;5.40923460;2023-10-09T08:58:56;21.20;95.50
6536;DHT22;34330;52.08032700;5.40923460;2023-10-09T09:01:25;21.20;95.40
6536;DHT22;34330;52.08032700;5.40923460;2023-10-09T09:03:55;21.30;95.30
6536;DHT22;34330;52.08032700;5.40923460;2023-10-09T09:06:24;21.40;95.40
6536;DHT22;34330;52.08032700;5.40923460;2023-10-09T09:08:54;21.40;95.20
6536;DHT22;34330;52.08032700;5.40923460;2023-10-09T09:11:41;21.50;95.20
6536;DHT22;34330;52.08032700;5.40923460;2023-10-09T09:14:17;21.50;95.20
6536;DHT22;34330;52.08032700;5.40923460;2023-10-09T09:16:48;21.60;95.10
6536;DHT22;34330;52.08032700;5.40923460;2023-10-09T09:19:16;21.60;95.00
6536;DHT22;34330;52.08032700;5.40923460;2023-10-09T09:21:58;21.70;94.90
6536;DHT22;34330;52.08032700;5.40923460;2023-10-09T09:24:38;21.70;94.60
6536;DHT22;34330;52.08032700;5.40923460;2023-10-09T09:27:13;21.80;94.70
6536;DHT22;34330;52.08032700;5.40923460;2023-10-09T09:29:47;21.80;94.60
6536;DHT22;34330;52.08032700;5.40923460;2023-10-09T09:32:28;21.90;94.50
6536;DHT22;34330;52.08032700;5.40923460;2023-10-09T09:35:03;21.90;94.40
6536;DHT22;34330;52.08032700;5.40923460;2023-10-09T09:37:33;22.00;94.40
6536;DHT22;34330;52.08032700;5.40923460;2023-10-09T09:40:17;22.10;94.40
6536;DHT22;34330;52.08032700;5.40923460;2023-10-09T09:43:01;22.10;94.30
6536;DHT22;34330;52.08032700;5.40923460;2023-10-09T09:45:34;22.20;94.30
6536;DHT22;34330;52.08032700;5.40923460;2023-10-09T09:48:04;22.20;94.20
6536;DHT22;34330;52.08032700;5.40923460;2023-10-09T09:50:33;22.30;93.90
6536;DHT22;34330;52.08032700;5.40923460;2023-10-09T09:53:12;22.30;93.90
6536;DHT22;34330;52.08032700;5.40923460;2023-10-09T09:55:49;22.70;94.00
6536;DHT22;34330;52.08032700;5.40923460;2023-10-09T09:58:24;22.40;93.80
6536;DHT22;34330;52.08032700;5.40923460;2023-10-09T10:01:00;22.50;94.20
6536;DHT22;34330;52.08032700;5.40923460;2023-10-09T10:03:38;22.60;93.60
6536;DHT22;34330;52.08032700;5.40923460;2023-10-09T10:06:11;22.60;93.60
6536;DHT22;34330;52.08032700;5.40923460;2023-10-09T10:08:41;22.60;93.50
6536;DHT22;34330;52.08032700;5.40923460;2023-10-09T10:14:12;22.70;93.20
6536;DHT22;34330;52.08032700;5.40923460;2023-10-09T10:17:06;22.80;93.40
6536;DHT22;34330;52.08032700;5.40923460;2023-10-09T10:20:03;22.90;93.10
6536;DHT22;34330;52.08032700;5.40923460;2023-10-09T10:22:49;22.90;93.20
6536;DHT22;34330;52.08032700;5.40923460;2023-10-09T10:25:43;22.90;93.20
6536;DHT22;34330;52.08032700;5.40923460;2023-10-09T10:28:17;23.00;93.20
6536;DHT22;34330;52.08032700;5.40923460;2023-10-09T10:30:55;23.10;93.20
6536;DHT22;34330;52.08032700;5.40923460;2023-10-09T10:34:03;23.10;92.90
6536;DHT22;34330;52.08032700;5.40923460;2023-10-09T10:36:34;23.10;92.60
6536;DHT22;34330;52.08032700;5.40923460;2023-10-09T10:39:04;23.20;92.90
6536;DHT22;34330;52.08032700;5.40923460;2023-10-09T10:41:36;23.20;92.60
6536;DHT22;34330;52.08032700;5.40923460;2023-10-09T10:44:25;23.20;92.50
6536;DHT22;34330;52.08032700;5.40923460;2023-10-09T10:47:05;23.30;92.30
6536;DHT22;34330;52.08032700;5.40923460;2023-10-09T10:49:51;23.30;92.30
6536;DHT22;34330;52.08032700;5.40923460;2023-10-09T10:52:26;23.40;92.40
6536;DHT22;34330;52.08032700;5.40923460;2023-10-09T10:55:10;23.50;92.30
6536;DHT22;34330;52.08032700;5.40923460;2023-10-09T10:58:01;23.50;92.20
6536;DHT22;34330;52.08032700;5.40923460;2023-10-09T11:00:37;23.50;92.10
6536;DHT22;34330;52.08032700;5.40923460;2023-10-09T11:03:23;23.60;92.00
6536;DHT22;34330;52.08032700;5.40923460;2023-10-09T11:06:01;23.60;92.00
6536;DHT22;34330;52.08032700;5.40923460;2023-10-09T11:08:43;23.70;91.80
6536;DHT22;34330;52.08032700;5.40923460;2023-10-09T11:11:21;23.70;91.80
6536;DHT22;34330;52.08032700;5.40923460;2023-10-09T11:13:49;23.80;91.80
6536;DHT22;34330;52.08032700;5.40923460;2023-10-09T11:16:22;23.80;91.40
6536;DHT22;34330;52.08032700;5.40923460;2023-10-09T11:19:09;23.90;91.20
6536;DHT22;34330;52.08032700;5.40923460;2023-10-09T11:21:52;23.90;91.30
6536;DHT22;34330;52.08032700;5.40923460;2023-10-09T11:24:48;23.90;90.90
6536;DHT22;34330;52.08032700;5.40923460;2023-10-09T11:27:28;24.00;90.90
6536;DHT22;34330;52.08032700;5.40923460;2023-10-09T11:29:59;24.00;90.80
6536;DHT22;34330;52.08032700;5.40923460;2023-10-09T11:32:36;24.00;90.80
6536;DHT22;34330;52.08032700;5.40923460;2023-10-09T11:35:15;24.10;90.60
6536;DHT22;34330;52.08032700;5.40923460;2023-10-09T11:37:56;24.10;90.20
6536;DHT22;34330;52.08032700;5.40923460;2023-10-09T11:40:29;24.10;90.20
6536;DHT22;34330;52.08032700;5.40923460;2023-10-09T11:43:01;24.20;90.50
6536;DHT22;34330;52.08032700;5.40923460;2023-10-09T11:45:30;24.20;90.60
6536;DHT22;34330;52.08032700;5.40923460;2023-10-09T11:48:17;24.20;90.60
6536;DHT22;34330;52.08032700;5.40923460;2023-10-09T11:50:54;24.30;89.70
6536;DHT22;34330;52.08032700;5.40923460;2023-10-09T11:53:24;24.30;90.10
6536;DHT22;34330;52.08032700;5.40923460;2023-10-09T11:56:03;24.30;90.00
6536;DHT22;34330;52.08032700;5.40923460;2023-10-09T11:58:30;24.40;90.00
6536;DHT22;34330;52.08032700;5.40923460;2023-10-09T12:00:59;24.40;89.70
6536;DHT22;34330;52.08032700;5.40923460;2023-10-09T12:03:31;24.40;89.30
6536;DHT22;34330;52.08032700;5.40923460;2023-10-09T12:06:01;24.40;88.60
6536;DHT22;34330;52.08032700;5.40923460;2023-10-09T12:08:33;24.40;88.80
6536;DHT22;34330;52.08032700;5.40923460;2023-10-09T12:11:02;24.40;88.70
6536;DHT22;34330;52.08032700;5.40923460;2023-10-09T12:13:35;24.40;89.10
6536;DHT22;34330;52.08032700;5.40923460;2023-10-09T12:16:05;24.40;89.30
6536;DHT22;34330;52.08032700;5.40923460;2023-10-09T12:18:36;24.50;89.30
6536;DHT22;34330;52.08032700;5.40923460;2023-10-09T12:21:06;24.50;89.10
6536;DHT22;34330;52.08032700;5.40923460;2023-10-09T12:23:35;24.50;88.80
6536;DHT22;34330;52.08032700;5.40923460;2023-10-09T12:26:04;24.60;88.60
6536;DHT22;34330;52.08032700;5.40923460;2023-10-09T12:28:41;24.60;88.30
6536;DHT22;34330;52.08032700;5.40923460;2023-10-09T12:31:13;24.60;88.30
6536;DHT22;34330;52.08032700;5.40923460;2023-10-09T12:33:42;24.60;88.20
6536;DHT22;34330;52.08032700;5.40923460;2023-10-09T12:36:11;24.60;87.80
6536;DHT22;34330;52.08032700;5.40923460;2023-10-09T12:38:48;24.60;88.10
6536;DHT22;34330;52.08032700;5.40923460;2023-10-09T12:41:17;24.60;87.90
6536;DHT22;34330;52.08032700;5.40923460;2023-10-09T12:43:52;24.60;88.00
6536;DHT22;34330;52.08032700;5.40923460;2023-10-09T12:46:20;24.70;88.30
6536;DHT22;34330;52.08032700;5.40923460;2023-10-09T12:48:50;24.50;87.60
6536;DHT22;34330;52.08032700;5.40923460;2023-10-09T12:51:21;24.50;88.20
6536;DHT22;34330;52.08032700;5.40923460;2023-10-09T12:53:53;24.50;88.70
6536;DHT22;34330;52.08032700;5.40923460;2023-10-09T12:56:24;24.50;88.40
6536;DHT22;34330;52.08032700;5.40923460;2023-10-09T12:58:59;24.60;88.70
6536;DHT22;34330;52.08032700;5.40923460;2023-10-09T13:01:28;24.60;88.50
6536;DHT22;34330;52.08032700;5.40923460;2023-10-09T13:04:00;24.70;88.40
6536;DHT22;34330;52.08032700;5.40923460;2023-10-09T13:06:28;24.70;88.20
6536;DHT22;34330;52.08032700;5.40923460;2023-10-09T13:08:58;24.70;88.20
6536;DHT22;34330;52.08032700;5.40923460;2023-10-09T13:11:26;24.70;87.80
6536;DHT22;34330;52.08032700;5.40923460;2023-10-09T13:13:55;24.70;88.10
6536;DHT22;34330;52.08032700;5.40923460;2023-10-09T13:16:29;24.70;88.00
6536;DHT22;34330;52.08032700;5.40923460;2023-10-09T13:18:58;24.70;87.80
6536;DHT22;34330;52.08032700;5.40923460;2023-10-09T13:21:36;24.70;87.60
6536;DHT22;34330;52.08032700;5.40923460;2023-10-09T13:24:07;24.70;87.30
6536;DHT22;34330;52.08032700;5.40923460;2023-10-09T13:26:40;24.70;87.60
6536;DHT22;34330;52.08032700;5.40923460;2023-10-09T13:29:10;24.60;87.60
6536;DHT22;34330;52.08032700;5.40923460;2023-10-09T13:31:39;24.60;88.00
6536;DHT22;34330;52.08032700;5.40923460;2023-10-09T13:34:13;24.60;87.70
6536;DHT22;34330;52.08032700;5.40923460;2023-10-09T13:36:43;24.60;87.80
6536;DHT22;34330;52.08032700;5.40923460;2023-10-09T13:39:18;24.60;87.80
6536;DHT22;34330;52.08032700;5.40923460;2023-10-09T13:41:52;24.60;87.50
6536;DHT22;34330;52.08032700;5.40923460;2023-10-09T13:44:27;24.60;87.40
6536;DHT22;34330;52.08032700;5.40923460;2023-10-09T13:46:56;24.60;87.10
6536;DHT22;34330;52.08032700;5.40923460;2023-10-09T13:49:25;24.60;87.20
6536;DHT22;34330;52.08032700;5.40923460;2023-10-09T13:51:57;24.60;86.90
6536;DHT22;34330;52.08032700;5.40923460;2023-10-09T13:54:28;24.60;87.10
6536;DHT22;34330;52.08032700;5.40923460;2023-10-09T13:57:06;24.60;86.80
6536;DHT22;34330;52.08032700;5.40923460;2023-10-09T13:59:37;24.60;87.00
6536;DHT22;34330;52.08032700;5.40923460;2023-10-09T14:02:10;24.60;87.20
6536;DHT22;34330;52.08032700;5.40923460;2023-10-09T14:04:45;24.60;87.70
6536;DHT22;34330;52.08032700;5.40923460;2023-10-09T14:07:14;24.60;87.00
6536;DHT22;34330;52.08032700;5.40923460;2023-10-09T14:09:45;24.60;86.70
6536;DHT22;34330;52.08032700;5.40923460;2023-10-09T14:12:23;24.60;86.70
6536;DHT22;34330;52.08032700;5.40923460;2023-10-09T14:14:52;24.50;87.00
6536;DHT22;34330;52.08032700;5.40923460;2023-10-09T14:17:22;24.50;86.80
6536;DHT22;34330;52.08032700;5.40923460;2023-10-09T14:19:53;24.50;86.70
6536;DHT22;34330;52.08032700;5.40923460;2023-10-09T14:22:23;24.50;86.70